Huvudsida
METAR-TAF:

METAR-TAF

Flygplatser :

Gran Canarias flygplats

Gran Canaria, Spanien

latitud: 27-56N, longitud: 015-23W, höjd: 23 m

Aktuellt väderrapport

Denna rapport gjordes för 25 minuter sedan, klockan 09:30 UTC
Vind 19 kt från nord, varierande mellan nord/nordväst och nordost
Temperatur 25°C
Fuktighet 57%
Tryck 1016 hPa
Sikt 10 km eller mer
Få moln på en höjd av 3000 ft

METAR: GCLP 190930Z 01019KT 340V040 9999 FEW030 25/16 Q1016 NOSIG

Tid: 10:55 (09:55 UTC)

Väderprognos

Denna rapport gjordes för 1 timme och 55 minuter sedan, klockan 08:00 UTC
Prognos gäller från 19 kl. 09 UTC till 20 kl. 09 UTC
Vind 20 kt från nord
Sikt 10 km eller mer
Brutna moln på en höjd av 3500 ft
Sannolikhet 40% :
Temporärt
från 19 kl. 09 UTC till 19 kl. 20 UTC
Vind 20 kt från nord i byarna ända upp till 30 kt

TAF: GCLP 190800Z 1909/2009 36020KT 9999 BKN035 TX26/1915Z TN20/2005Z PROB40 TEMPO 1909/1920 36020G30KT

Aktuella väderrapporter och prognoser från 4000 flygplatser (METAR- och TAF-rapporter).

De tillgängliga stationerna syns som gula och röda prickar på kartan.

För musen över prickarna för att se namnen på stationerna.

Klicka sedan för att få väderrapporter och prognoser.

För att ändra kartan: Klicka på de gröna knapparna med ett svart kors på för att zooma in; den gröna knappen med ett streck på för att zooma ut; eller på de gröna pilarna för angränsande kartor.


METAR-TAF: